createdAt,value
2023-04-18T00:01:27.498Z,14.86
2023-04-18T00:03:56.057Z,14.86
2023-04-18T00:06:24.142Z,14.90
2023-04-18T00:08:52.115Z,14.87
2023-04-18T00:11:20.918Z,14.85
2023-04-18T00:13:48.876Z,14.87
2023-04-18T00:16:16.994Z,14.86
2023-04-18T00:18:45.217Z,14.86
2023-04-18T00:21:13.918Z,14.81
2023-04-18T00:23:41.930Z,14.81
2023-04-18T00:26:10.000Z,14.78
2023-04-18T00:28:38.065Z,14.67
2023-04-18T00:31:06.107Z,14.65
2023-04-18T00:33:34.803Z,14.68
2023-04-18T00:36:03.450Z,14.69
2023-04-18T00:38:31.387Z,14.69
2023-04-18T00:40:59.405Z,14.73
2023-04-18T00:43:28.256Z,14.76
2023-04-18T00:45:57.329Z,14.76
2023-04-18T00:48:25.962Z,14.73
2023-04-18T00:50:55.561Z,14.71
2023-04-18T00:53:23.492Z,14.67
2023-04-18T00:55:51.704Z,14.57
2023-04-18T00:58:20.413Z,14.53
2023-04-18T01:00:48.605Z,14.55
2023-04-18T01:03:18.572Z,14.52
2023-04-18T01:05:47.427Z,14.50
2023-04-18T01:08:15.614Z,14.52
2023-04-18T01:10:43.638Z,14.53
2023-04-18T01:13:19.601Z,14.46
2023-04-18T01:15:49.265Z,14.44
2023-04-18T01:18:17.575Z,14.41
2023-04-18T01:20:49.457Z,14.44
2023-04-18T01:23:18.203Z,14.53
2023-04-18T01:25:46.981Z,14.57
2023-04-18T01:28:15.362Z,14.54
2023-04-18T01:30:43.342Z,14.54
2023-04-18T01:33:11.405Z,14.57
2023-04-18T01:35:39.505Z,14.57
2023-04-18T01:38:07.424Z,14.58
2023-04-18T01:40:35.813Z,14.61
2023-04-18T01:43:03.988Z,14.58
2023-04-18T01:45:31.957Z,14.51
2023-04-18T01:48:00.050Z,14.48
2023-04-18T01:50:28.338Z,14.46
2023-04-18T01:52:56.345Z,14.38
2023-04-18T01:55:24.450Z,14.29
2023-04-18T01:57:53.056Z,14.21
2023-04-18T02:00:21.593Z,14.07
2023-04-18T02:02:50.824Z,14.01
2023-04-18T02:05:22.214Z,14.03
2023-04-18T02:07:50.816Z,14.09
2023-04-18T02:10:20.142Z,14.15
2023-04-18T02:12:48.311Z,14.17
2023-04-18T02:15:16.290Z,14.18
2023-04-18T02:17:44.410Z,14.23
2023-04-18T02:20:13.544Z,14.22
2023-04-18T02:22:41.727Z,14.12
2023-04-18T02:25:10.942Z,14.06
2023-04-18T02:27:40.424Z,13.97
2023-04-18T02:30:09.486Z,13.82
2023-04-18T02:32:37.568Z,13.73
2023-04-18T02:35:06.784Z,13.68
2023-04-18T02:37:34.772Z,13.69
2023-04-18T02:40:05.203Z,13.69
2023-04-18T02:42:33.351Z,13.74
2023-04-18T02:45:02.761Z,13.77
2023-04-18T02:47:37.589Z,13.78
2023-04-18T02:50:11.804Z,13.83
2023-04-18T02:52:40.190Z,13.89
2023-04-18T02:55:09.222Z,13.97
2023-04-18T02:57:39.557Z,14.04
2023-04-18T03:00:39.983Z,14.08
2023-04-18T03:03:34.237Z,14.10
2023-04-18T03:06:25.165Z,14.12
2023-04-18T03:08:55.531Z,14.10
2023-04-18T03:11:25.139Z,13.90
2023-04-18T03:13:53.857Z,13.62
2023-04-18T03:16:22.667Z,13.61
2023-04-18T03:18:50.888Z,13.54
2023-04-18T03:21:19.670Z,13.51
2023-04-18T03:23:48.057Z,13.52
2023-04-18T03:26:16.484Z,13.59
2023-04-18T03:28:45.506Z,13.67
2023-04-18T03:31:13.661Z,13.69
2023-04-18T03:33:44.341Z,13.63
2023-04-18T03:36:18.176Z,13.62
2023-04-18T03:38:46.614Z,13.66
2023-04-18T03:41:14.784Z,13.63
2023-04-18T03:43:42.969Z,13.62
2023-04-18T03:46:11.142Z,13.60
2023-04-18T03:48:39.429Z,13.64
2023-04-18T03:51:10.077Z,13.69
2023-04-18T03:53:38.616Z,13.71
2023-04-18T03:56:07.277Z,13.75
2023-04-18T03:58:54.632Z,13.83
2023-04-18T04:01:23.640Z,13.64
2023-04-18T04:03:53.049Z,13.44
2023-04-18T04:06:22.417Z,13.34
2023-04-18T04:08:50.339Z,13.15
2023-04-18T04:11:22.136Z,13.15
2023-04-18T04:13:50.276Z,13.15
2023-04-18T04:16:21.324Z,13.20
2023-04-18T04:18:50.157Z,13.16
2023-04-18T04:21:20.655Z,13.06
2023-04-18T04:23:54.095Z,12.94
2023-04-18T04:26:30.770Z,12.66
2023-04-18T04:29:05.368Z,12.59
2023-04-18T04:31:34.734Z,12.77
2023-04-18T04:34:03.758Z,12.67
2023-04-18T04:36:33.568Z,12.68
2023-04-18T04:39:04.296Z,12.79
2023-04-18T04:41:55.584Z,12.76
2023-04-18T04:44:26.140Z,12.67
2023-04-18T04:46:55.046Z,12.65
2023-04-18T04:49:25.595Z,12.68
2023-04-18T04:51:54.045Z,12.47
2023-04-18T04:54:22.215Z,12.27
2023-04-18T04:56:50.592Z,12.24
2023-04-18T04:59:18.802Z,12.25
2023-04-18T05:01:47.476Z,12.35
2023-04-18T05:04:17.344Z,12.43
2023-04-18T05:06:46.374Z,12.35
2023-04-18T05:09:14.430Z,12.36
2023-04-18T05:11:42.437Z,12.16
2023-04-18T05:14:10.496Z,12.34
2023-04-18T05:16:38.573Z,12.49
2023-04-18T05:19:06.719Z,12.48
2023-04-18T05:21:34.833Z,12.29
2023-04-18T05:24:02.854Z,12.36
2023-04-18T05:26:30.912Z,12.58
2023-04-18T05:28:59.004Z,12.86
2023-04-18T05:31:27.662Z,12.97
2023-04-18T05:33:56.159Z,13.16
2023-04-18T05:36:24.360Z,13.02
2023-04-18T05:38:52.279Z,12.92
2023-04-18T05:41:20.518Z,13.13
2023-04-18T05:43:57.833Z,13.20
2023-04-18T05:46:33.268Z,13.25
2023-04-18T05:49:02.022Z,13.11
2023-04-18T05:51:30.067Z,13.17
2023-04-18T05:53:58.240Z,12.99
2023-04-18T05:56:26.247Z,13.12
2023-04-18T05:58:54.203Z,13.28
2023-04-18T06:01:22.177Z,13.30
2023-04-18T06:03:50.502Z,13.33
2023-04-18T06:06:18.693Z,13.27
2023-04-18T06:08:46.767Z,13.26
2023-04-18T06:11:20.258Z,13.39
2023-04-18T06:13:48.293Z,13.61
2023-04-18T06:16:16.332Z,13.50
2023-04-18T06:18:44.490Z,13.31
2023-04-18T06:21:13.373Z,13.33
2023-04-18T06:23:41.433Z,13.58
2023-04-18T06:26:09.705Z,13.47
2023-04-18T06:28:37.780Z,13.55
2023-04-18T06:31:06.046Z,13.58
2023-04-18T06:33:34.121Z,13.84
2023-04-18T06:36:02.138Z,13.55
2023-04-18T06:38:30.266Z,13.81
2023-04-18T06:40:58.193Z,13.85
2023-04-18T06:43:26.207Z,13.82
2023-04-18T06:45:54.609Z,14.06
2023-04-18T06:48:22.933Z,14.26
2023-04-18T06:50:50.877Z,14.27
2023-04-18T06:53:18.903Z,14.41
2023-04-18T06:55:46.858Z,14.76
2023-04-18T06:58:17.078Z,14.93
2023-04-18T07:00:47.750Z,14.74
2023-04-18T07:03:16.153Z,14.56
2023-04-18T07:05:44.364Z,14.47
2023-04-18T07:08:12.544Z,14.60
2023-04-18T07:10:41.223Z,14.45
2023-04-18T07:13:09.352Z,14.61
2023-04-18T07:15:37.665Z,14.71
2023-04-18T07:18:06.006Z,14.96
2023-04-18T07:20:34.114Z,15.04
2023-04-18T07:23:02.084Z,14.98
2023-04-18T07:25:30.357Z,15.12
2023-04-18T07:27:58.737Z,15.27
2023-04-18T07:30:26.852Z,15.31
2023-04-18T07:32:55.095Z,15.26
2023-04-18T07:35:23.244Z,15.35
2023-04-18T07:37:53.064Z,14.83
2023-04-18T07:40:21.295Z,14.01
2023-04-18T07:42:49.519Z,13.63
2023-04-18T07:45:17.904Z,14.26
2023-04-18T07:47:46.144Z,15.03
2023-04-18T07:50:14.150Z,15.48
2023-04-18T07:52:42.154Z,15.30
2023-04-18T07:55:10.799Z,14.70
2023-04-18T07:57:38.969Z,14.35
2023-04-18T08:00:07.957Z,14.72
2023-04-18T08:02:41.834Z,15.36
2023-04-18T08:05:10.892Z,15.98
2023-04-18T08:07:39.050Z,15.60
2023-04-18T08:10:07.921Z,15.10
2023-04-18T08:12:37.016Z,14.72
2023-04-18T08:15:06.120Z,14.34
2023-04-18T08:17:34.121Z,14.56
2023-04-18T08:20:05.191Z,15.15
2023-04-18T08:22:33.720Z,14.99
2023-04-18T08:25:05.336Z,14.66
2023-04-18T08:27:33.676Z,14.45
2023-04-18T08:30:04.368Z,14.45
2023-04-18T08:32:32.461Z,14.47
2023-04-18T08:35:01.022Z,14.57
2023-04-18T08:37:29.251Z,14.68
2023-04-18T08:39:57.357Z,14.72
2023-04-18T08:42:25.369Z,14.83
2023-04-18T08:44:54.123Z,14.87
2023-04-18T08:47:22.161Z,14.91
2023-04-18T08:49:52.240Z,14.91
2023-04-18T08:52:21.787Z,15.05
2023-04-18T08:54:50.294Z,15.28
2023-04-18T08:57:26.954Z,15.21
2023-04-18T08:59:55.556Z,15.41
2023-04-18T09:02:42.142Z,15.52
2023-04-18T09:05:15.063Z,15.81
2023-04-18T09:07:43.236Z,15.95
2023-04-18T09:10:12.689Z,15.77
2023-04-18T09:12:52.438Z,15.67
2023-04-18T09:15:23.824Z,15.58
2023-04-18T09:17:56.601Z,15.55
2023-04-18T09:20:41.329Z,15.50
2023-04-18T09:23:14.688Z,15.71
2023-04-18T09:25:45.024Z,15.83
2023-04-18T09:28:30.960Z,15.93
2023-04-18T09:31:12.270Z,15.87
2023-04-18T09:33:44.968Z,15.94
2023-04-18T09:36:18.347Z,16.01
2023-04-18T09:38:47.561Z,15.96
2023-04-18T09:41:19.907Z,15.91
2023-04-18T09:43:49.666Z,16.02
2023-04-18T09:46:17.895Z,16.15
2023-04-18T09:48:46.134Z,16.08
2023-04-18T09:51:17.588Z,16.05
2023-04-18T09:53:47.811Z,16.18
2023-04-18T09:56:26.268Z,16.20
2023-04-18T09:59:09.137Z,16.31
2023-04-18T10:01:37.773Z,16.73
2023-04-18T10:04:09.117Z,16.73
2023-04-18T10:06:40.022Z,16.61
2023-04-18T10:09:09.434Z,16.46
2023-04-18T10:11:37.580Z,16.56
2023-04-18T10:14:09.666Z,16.80
2023-04-18T10:16:38.142Z,16.72
2023-04-18T10:19:29.749Z,16.61
2023-04-18T10:22:00.485Z,16.69
2023-04-18T10:24:54.355Z,16.80
2023-04-18T10:27:48.740Z,17.11
2023-04-18T10:30:17.212Z,16.87
2023-04-18T10:32:48.255Z,16.86
2023-04-18T10:35:16.328Z,16.88
2023-04-18T10:37:51.276Z,16.86
2023-04-18T10:40:33.701Z,16.78
2023-04-18T10:43:01.860Z,16.59
2023-04-18T10:45:31.958Z,16.73
2023-04-18T10:48:27.777Z,16.68
2023-04-18T10:51:29.102Z,16.69
2023-04-18T10:53:58.054Z,16.60
2023-04-18T10:56:28.250Z,16.53
2023-04-18T10:58:56.398Z,16.58
2023-04-18T11:01:32.173Z,16.69
2023-04-18T11:04:01.591Z,16.86
2023-04-18T11:06:31.444Z,16.92
2023-04-18T11:09:10.997Z,16.92
2023-04-18T11:11:39.279Z,16.87
2023-04-18T11:14:07.472Z,16.90
2023-04-18T11:16:35.660Z,16.93
2023-04-18T11:19:24.043Z,17.06
2023-04-18T11:21:52.084Z,17.08
2023-04-18T11:24:24.336Z,17.21
2023-04-18T11:26:56.377Z,17.25
2023-04-18T11:29:24.564Z,17.31
2023-04-18T11:31:58.245Z,17.28
2023-04-18T11:34:30.997Z,17.33
2023-04-18T11:36:59.243Z,17.42
2023-04-18T11:39:27.391Z,17.44
2023-04-18T11:41:57.303Z,17.36
2023-04-18T11:44:26.297Z,17.44
2023-04-18T11:46:54.309Z,17.64
2023-04-18T11:49:32.148Z,17.67
2023-04-18T11:52:01.389Z,17.58
2023-04-18T11:54:44.858Z,17.66
2023-04-18T11:57:22.289Z,17.55
2023-04-18T11:59:56.945Z,17.48
2023-04-18T12:02:39.280Z,17.45
2023-04-18T12:05:08.734Z,17.54
2023-04-18T12:07:42.798Z,17.56
2023-04-18T12:10:19.923Z,17.63
2023-04-18T12:12:49.428Z,17.76
2023-04-18T12:15:17.988Z,17.93
2023-04-18T12:17:48.711Z,17.95
2023-04-18T12:20:16.922Z,17.95
2023-04-18T12:22:51.453Z,18.03
2023-04-18T12:25:27.180Z,18.18
2023-04-18T12:27:58.804Z,18.28
2023-04-18T12:30:29.716Z,18.32
2023-04-18T12:33:00.410Z,18.07
2023-04-18T12:35:29.498Z,17.95
2023-04-18T12:38:00.056Z,17.73
2023-04-18T12:40:29.294Z,17.74
2023-04-18T12:42:57.403Z,17.76
2023-04-18T12:45:25.576Z,17.86
2023-04-18T12:47:53.967Z,18.08
2023-04-18T12:50:24.378Z,18.23
2023-04-18T12:52:53.893Z,18.34
2023-04-18T12:55:24.980Z,18.50
2023-04-18T12:57:54.562Z,18.46
2023-04-18T13:00:28.564Z,18.29
2023-04-18T13:02:56.805Z,18.08
2023-04-18T13:05:29.219Z,18.06
2023-04-18T13:08:15.478Z,17.82
2023-04-18T13:10:47.783Z,17.76
2023-04-18T13:13:16.189Z,17.83
2023-04-18T13:15:44.310Z,17.88
2023-04-18T13:18:12.523Z,17.81
2023-04-18T13:20:40.767Z,17.84
2023-04-18T13:23:08.950Z,17.76
2023-04-18T13:25:36.850Z,17.74
2023-04-18T13:28:05.487Z,17.83
2023-04-18T13:30:36.012Z,17.87
2023-04-18T13:33:04.186Z,17.97
2023-04-18T13:35:32.094Z,18.06
2023-04-18T13:38:00.236Z,18.10
2023-04-18T13:40:28.311Z,18.03
2023-04-18T13:42:56.350Z,17.98
2023-04-18T13:45:24.417Z,17.91
2023-04-18T13:47:52.628Z,17.87
2023-04-18T13:50:21.410Z,17.96
2023-04-18T13:52:52.104Z,18.07
2023-04-18T13:55:20.272Z,18.09
2023-04-18T13:57:48.311Z,17.97
2023-04-18T14:00:17.626Z,17.91
2023-04-18T14:02:45.584Z,17.87
2023-04-18T14:05:14.018Z,17.78
2023-04-18T14:07:42.119Z,17.71
2023-04-18T14:10:11.178Z,17.69
2023-04-18T14:12:40.102Z,17.64
2023-04-18T14:15:14.633Z,17.68
2023-04-18T14:17:45.297Z,17.58
2023-04-18T14:20:15.856Z,17.51
2023-04-18T14:22:43.834Z,17.54
2023-04-18T14:25:11.891Z,17.47
2023-04-18T14:27:40.465Z,17.49
2023-04-18T14:30:10.289Z,17.61
2023-04-18T14:32:38.288Z,17.53
2023-04-18T14:35:07.455Z,17.41
2023-04-18T14:37:35.651Z,17.39
2023-04-18T14:40:05.599Z,17.38
2023-04-18T14:42:33.629Z,17.38
2023-04-18T14:45:01.669Z,17.28
2023-04-18T14:47:32.020Z,17.14
2023-04-18T14:50:00.354Z,17.14
2023-04-18T14:52:28.338Z,17.20
2023-04-18T14:54:56.336Z,17.18
2023-04-18T14:57:25.200Z,17.19
2023-04-18T14:59:54.962Z,17.21
2023-04-18T15:02:23.212Z,17.16
2023-04-18T15:04:52.294Z,17.10
2023-04-18T15:07:20.446Z,16.96
2023-04-18T15:09:48.383Z,16.85
2023-04-18T15:12:16.489Z,16.79
2023-04-18T15:14:44.660Z,16.76
2023-04-18T15:17:12.634Z,16.76
2023-04-18T15:19:41.030Z,16.71
2023-04-18T15:22:09.285Z,16.63
2023-04-18T15:24:37.454Z,16.60
2023-04-18T15:27:06.350Z,16.67
2023-04-18T15:29:34.528Z,16.75
2023-04-18T15:32:02.633Z,16.81
2023-04-18T15:34:31.413Z,16.81
2023-04-18T15:36:59.556Z,16.72
2023-04-18T15:39:27.460Z,16.63
2023-04-18T15:41:55.593Z,16.55
2023-04-18T15:44:23.629Z,16.48
2023-04-18T15:46:52.048Z,16.45
2023-04-18T15:49:20.259Z,16.38
2023-04-18T15:51:48.304Z,16.35
2023-04-18T15:54:16.705Z,16.40
2023-04-18T15:56:44.954Z,16.41
2023-04-18T15:59:13.833Z,16.42
2023-04-18T16:01:45.199Z,16.36
2023-04-18T16:04:14.303Z,16.31
2023-04-18T16:06:43.250Z,16.28
2023-04-18T16:09:11.171Z,16.29
2023-04-18T16:11:39.088Z,16.26
2023-04-18T16:14:07.160Z,16.24
2023-04-18T16:16:35.091Z,16.22
2023-04-18T16:19:04.531Z,16.22
2023-04-18T16:21:32.678Z,16.19
2023-04-18T16:24:00.874Z,16.20
2023-04-18T16:26:29.255Z,16.23
2023-04-18T16:28:57.425Z,16.22
2023-04-18T16:31:25.468Z,16.19
2023-04-18T16:33:53.541Z,16.13
2023-04-18T16:36:21.510Z,16.09
2023-04-18T16:38:49.383Z,16.03
2023-04-18T16:41:17.433Z,15.97
2023-04-18T16:43:45.450Z,15.87
2023-04-18T16:46:13.936Z,15.72
2023-04-18T16:48:42.007Z,15.56
2023-04-18T16:51:10.014Z,15.39
2023-04-18T16:53:38.141Z,15.24
2023-04-18T16:56:08.027Z,15.06
2023-04-18T16:58:36.097Z,14.93
2023-04-18T17:01:04.197Z,14.80
2023-04-18T17:03:32.395Z,14.69
2023-04-18T17:06:01.772Z,14.58
2023-04-18T17:08:32.094Z,14.50
2023-04-18T17:11:02.158Z,14.40
2023-04-18T17:13:31.600Z,14.35
2023-04-18T17:15:59.976Z,14.27
2023-04-18T17:18:29.526Z,14.19
2023-04-18T17:20:57.567Z,14.10
2023-04-18T17:23:25.607Z,14.01
2023-04-18T17:25:53.705Z,13.93
2023-04-18T17:28:23.741Z,13.87
2023-04-18T17:30:52.060Z,13.80
2023-04-18T17:33:20.075Z,13.71
2023-04-18T17:35:48.358Z,13.65
2023-04-18T17:38:16.396Z,13.58
2023-04-18T17:40:44.487Z,13.50
2023-04-18T17:43:12.863Z,13.44
2023-04-18T17:45:41.366Z,13.39
2023-04-18T17:48:09.752Z,13.34
2023-04-18T17:50:38.185Z,13.28
2023-04-18T17:53:06.268Z,13.24
2023-04-18T17:55:34.343Z,13.19
2023-04-18T17:58:02.510Z,13.14
2023-04-18T18:00:30.750Z,13.11
2023-04-18T18:03:01.712Z,13.27
2023-04-18T18:05:30.577Z,14.08
2023-04-18T18:08:00.304Z,14.94
2023-04-18T18:10:28.912Z,15.41
2023-04-18T18:12:57.306Z,15.17
2023-04-18T18:15:25.570Z,14.60
2023-04-18T18:17:55.050Z,14.16
2023-04-18T18:20:23.454Z,13.87
2023-04-18T18:22:52.813Z,13.65
2023-04-18T18:25:21.351Z,13.45
2023-04-18T18:27:51.457Z,13.29
2023-04-18T18:30:19.524Z,13.16
2023-04-18T18:32:47.705Z,13.48
2023-04-18T18:35:15.868Z,14.28
2023-04-18T18:37:43.936Z,15.02
2023-04-18T18:40:12.840Z,15.51
2023-04-18T18:42:42.682Z,15.77
2023-04-18T18:45:10.963Z,15.36
2023-04-18T18:47:39.996Z,14.77
2023-04-18T18:50:09.409Z,14.29
2023-04-18T18:52:37.683Z,13.92
2023-04-18T18:55:07.289Z,13.65
2023-04-18T18:57:35.284Z,13.42
2023-04-18T19:00:11.286Z,13.24
2023-04-18T19:02:39.845Z,13.10
2023-04-18T19:05:09.002Z,13.02
2023-04-18T19:07:37.017Z,13.53
2023-04-18T19:10:07.022Z,14.39
2023-04-18T19:12:35.965Z,15.05
2023-04-18T19:15:05.506Z,15.53
2023-04-18T19:17:33.575Z,15.87
2023-04-18T19:20:01.970Z,16.12
2023-04-18T19:22:30.737Z,16.35
2023-04-18T19:25:00.740Z,16.48
2023-04-18T19:27:28.926Z,16.02
2023-04-18T19:29:56.987Z,15.29
2023-04-18T19:32:25.086Z,14.69
2023-04-18T19:34:53.139Z,14.23
2023-04-18T19:37:21.144Z,13.88
2023-04-18T19:39:49.199Z,13.59
2023-04-18T19:42:17.155Z,13.36
2023-04-18T19:44:45.389Z,13.15
2023-04-18T19:47:13.567Z,12.98
2023-04-18T19:49:41.633Z,12.82
2023-04-18T19:52:09.673Z,12.66
2023-04-18T19:54:37.772Z,12.52
2023-04-18T19:57:06.557Z,12.76
2023-04-18T19:59:34.654Z,13.60
2023-04-18T20:02:05.651Z,14.31
2023-04-18T20:04:34.736Z,14.85
2023-04-18T20:07:02.901Z,15.24
2023-04-18T20:09:30.910Z,15.50
2023-04-18T20:12:00.671Z,15.71
2023-04-18T20:14:29.369Z,15.90
2023-04-18T20:16:57.501Z,16.03
2023-04-18T20:19:25.780Z,16.10
2023-04-18T20:21:53.952Z,15.64
2023-04-18T20:24:22.007Z,14.89
2023-04-18T20:26:51.499Z,14.28
2023-04-18T20:29:19.573Z,13.81
2023-04-18T20:31:47.518Z,13.43
2023-04-18T20:34:15.865Z,13.16
2023-04-18T20:36:45.158Z,13.03
2023-04-18T20:39:13.891Z,13.58
2023-04-18T20:41:48.557Z,14.25
2023-04-18T20:44:19.113Z,14.70
2023-04-18T20:46:49.289Z,15.02
2023-04-18T20:49:17.548Z,15.25
2023-04-18T20:51:45.937Z,15.50
2023-04-18T20:54:14.147Z,15.65
2023-04-18T20:56:42.383Z,15.25
2023-04-18T20:59:10.442Z,14.51
2023-04-18T21:01:38.542Z,13.90
2023-04-18T21:04:06.926Z,13.47
2023-04-18T21:06:35.290Z,13.71
2023-04-18T21:09:04.060Z,14.40
2023-04-18T21:11:32.145Z,14.86
2023-04-18T21:14:00.186Z,15.22
2023-04-18T21:16:28.308Z,15.46
2023-04-18T21:18:56.335Z,15.65
2023-04-18T21:21:24.921Z,15.58
2023-04-18T21:23:52.879Z,14.93
2023-04-18T21:26:21.109Z,14.25
2023-04-18T21:29:00.636Z,13.74
2023-04-18T21:31:30.957Z,13.32
2023-04-18T21:34:00.887Z,13.17
2023-04-18T21:36:30.633Z,13.77
2023-04-18T21:39:00.869Z,14.40
2023-04-18T21:41:28.944Z,14.78
2023-04-18T21:43:56.921Z,15.02
2023-04-18T21:46:25.027Z,15.29
2023-04-18T21:48:53.095Z,15.53
2023-04-18T21:51:21.151Z,15.72
2023-04-18T21:53:49.240Z,15.53
2023-04-18T21:56:17.322Z,14.73
2023-04-18T21:58:45.491Z,14.05
2023-04-18T22:01:13.542Z,13.51
2023-04-18T22:03:41.946Z,13.43
2023-04-18T22:06:10.684Z,13.99
2023-04-18T22:08:39.156Z,14.52
2023-04-18T22:11:09.386Z,14.94
2023-04-18T22:13:37.570Z,15.12
2023-04-18T22:16:08.275Z,14.73
2023-04-18T22:18:37.916Z,14.06
2023-04-18T22:21:06.809Z,13.51
2023-04-18T22:23:34.846Z,13.11
2023-04-18T22:26:02.711Z,12.81
2023-04-18T22:28:30.988Z,12.98
2023-04-18T22:30:58.990Z,13.73
2023-04-18T22:33:27.288Z,14.35
2023-04-18T22:35:55.917Z,14.79
2023-04-18T22:38:25.286Z,15.07
2023-04-18T22:40:53.257Z,15.27
2023-04-18T22:43:23.886Z,15.46
2023-04-18T22:45:51.868Z,15.58
2023-04-18T22:48:20.164Z,15.16
2023-04-18T22:50:50.055Z,14.35
2023-04-18T22:53:18.376Z,13.71
2023-04-18T22:55:46.668Z,13.23
2023-04-18T22:58:14.962Z,12.87
2023-04-18T23:00:43.063Z,12.60
2023-04-18T23:03:12.087Z,12.37
2023-04-18T23:05:40.691Z,12.18
2023-04-18T23:08:08.730Z,12.01
2023-04-18T23:10:36.734Z,11.87
2023-04-18T23:13:04.786Z,11.74
2023-04-18T23:15:32.926Z,11.63
2023-04-18T23:18:01.184Z,12.12
2023-04-18T23:20:29.224Z,12.96
2023-04-18T23:22:57.164Z,13.63
2023-04-18T23:25:25.345Z,14.09
2023-04-18T23:27:53.485Z,14.36
2023-04-18T23:30:21.435Z,14.61
2023-04-18T23:32:49.510Z,14.84
2023-04-18T23:35:17.908Z,15.05
2023-04-18T23:37:46.192Z,15.20
2023-04-18T23:40:14.488Z,15.08
2023-04-18T23:42:42.834Z,14.37
2023-04-18T23:45:11.835Z,13.70
2023-04-18T23:47:39.957Z,13.15
2023-04-18T23:50:09.469Z,12.72
2023-04-18T23:52:38.710Z,12.39
2023-04-18T23:55:07.464Z,12.12
2023-04-18T23:57:35.688Z,11.90
